sensor_id;sensor_type;location;lat;lon;timestamp;P1;durP1;ratioP1;P2;durP2;ratioP2
18166;SDS011;9208;42.688;23.404;2022-08-21T00:01:22;4.80;;;4.30;;
18166;SDS011;9208;42.688;23.404;2022-08-21T00:03:50;6.77;;;5.00;;
18166;SDS011;9208;42.688;23.404;2022-08-21T00:06:16;7.23;;;5.00;;
18166;SDS011;9208;42.688;23.404;2022-08-21T00:08:42;5.00;;;4.37;;
18166;SDS011;9208;42.688;23.404;2022-08-21T00:11:08;4.90;;;4.40;;
18166;SDS011;9208;42.688;23.404;2022-08-21T00:13:34;6.07;;;4.77;;
18166;SDS011;9208;42.688;23.404;2022-08-21T00:16:01;5.27;;;4.77;;
18166;SDS011;9208;42.688;23.404;2022-08-21T00:18:28;5.50;;;4.77;;
18166;SDS011;9208;42.688;23.404;2022-08-21T00:20:53;7.40;;;4.90;;
18166;SDS011;9208;42.688;23.404;2022-08-21T00:23:19;5.90;;;5.03;;
18166;SDS011;9208;42.688;23.404;2022-08-21T00:25:45;7.90;;;4.83;;
18166;SDS011;9208;42.688;23.404;2022-08-21T00:28:11;5.47;;;4.97;;
18166;SDS011;9208;42.688;23.404;2022-08-21T00:30:38;7.30;;;5.50;;
18166;SDS011;9208;42.688;23.404;2022-08-21T00:33:04;6.93;;;5.63;;
18166;SDS011;9208;42.688;23.404;2022-08-21T00:35:33;8.50;;;5.70;;
18166;SDS011;9208;42.688;23.404;2022-08-21T00:38:02;6.67;;;5.97;;
18166;SDS011;9208;42.688;23.404;2022-08-21T00:40:31;6.87;;;6.03;;
18166;SDS011;9208;42.688;23.404;2022-08-21T00:43:03;7.27;;;5.93;;
18166;SDS011;9208;42.688;23.404;2022-08-21T00:45:30;9.97;;;6.80;;
18166;SDS011;9208;42.688;23.404;2022-08-21T00:47:56;7.17;;;6.13;;
18166;SDS011;9208;42.688;23.404;2022-08-21T00:50:22;8.57;;;6.73;;
18166;SDS011;9208;42.688;23.404;2022-08-21T00:52:52;8.50;;;7.03;;
18166;SDS011;9208;42.688;23.404;2022-08-21T00:55:18;8.53;;;6.53;;
18166;SDS011;9208;42.688;23.404;2022-08-21T00:57:46;9.77;;;6.73;;
18166;SDS011;9208;42.688;23.404;2022-08-21T01:00:16;8.60;;;6.77;;
18166;SDS011;9208;42.688;23.404;2022-08-21T01:02:44;11.67;;;7.70;;
18166;SDS011;9208;42.688;23.404;2022-08-21T01:05:11;9.97;;;7.10;;
18166;SDS011;9208;42.688;23.404;2022-08-21T01:07:38;11.70;;;8.17;;
18166;SDS011;9208;42.688;23.404;2022-08-21T01:10:04;9.40;;;8.43;;
18166;SDS011;9208;42.688;23.404;2022-08-21T01:12:31;10.50;;;8.70;;
18166;SDS011;9208;42.688;23.404;2022-08-21T01:14:57;11.27;;;9.77;;
18166;SDS011;9208;42.688;23.404;2022-08-21T01:17:23;11.70;;;9.27;;
18166;SDS011;9208;42.688;23.404;2022-08-21T01:19:49;12.50;;;9.23;;
18166;SDS011;9208;42.688;23.404;2022-08-21T01:22:15;12.13;;;9.10;;
18166;SDS011;9208;42.688;23.404;2022-08-21T01:24:40;12.17;;;9.03;;
18166;SDS011;9208;42.688;23.404;2022-08-21T01:27:06;9.93;;;8.60;;
18166;SDS011;9208;42.688;23.404;2022-08-21T01:29:34;12.03;;;9.20;;
18166;SDS011;9208;42.688;23.404;2022-08-21T01:32:08;9.13;;;8.23;;
18166;SDS011;9208;42.688;23.404;2022-08-21T01:34:36;10.37;;;8.50;;
18166;SDS011;9208;42.688;23.404;2022-08-21T01:37:05;10.00;;;8.40;;
18166;SDS011;9208;42.688;23.404;2022-08-21T01:39:31;10.50;;;8.53;;
18166;SDS011;9208;42.688;23.404;2022-08-21T01:41:57;10.33;;;8.73;;
18166;SDS011;9208;42.688;23.404;2022-08-21T01:44:23;12.53;;;9.63;;
18166;SDS011;9208;42.688;23.404;2022-08-21T01:46:49;12.40;;;11.10;;
18166;SDS011;9208;42.688;23.404;2022-08-21T01:49:16;15.70;;;12.07;;
18166;SDS011;9208;42.688;23.404;2022-08-21T01:51:42;18.33;;;12.80;;
18166;SDS011;9208;42.688;23.404;2022-08-21T01:54:07;15.20;;;12.17;;
18166;SDS011;9208;42.688;23.404;2022-08-21T01:56:41;16.90;;;11.53;;
18166;SDS011;9208;42.688;23.404;2022-08-21T01:59:08;13.07;;;10.93;;
18166;SDS011;9208;42.688;23.404;2022-08-21T02:01:34;12.13;;;9.97;;
18166;SDS011;9208;42.688;23.404;2022-08-21T02:04:00;12.37;;;10.30;;
18166;SDS011;9208;42.688;23.404;2022-08-21T02:06:26;13.53;;;10.13;;
18166;SDS011;9208;42.688;23.404;2022-08-21T02:08:53;13.63;;;10.60;;
18166;SDS011;9208;42.688;23.404;2022-08-21T02:11:18;12.83;;;10.90;;
18166;SDS011;9208;42.688;23.404;2022-08-21T02:13:44;15.43;;;10.87;;
18166;SDS011;9208;42.688;23.404;2022-08-21T02:16:10;13.77;;;10.37;;
18166;SDS011;9208;42.688;23.404;2022-08-21T02:18:36;14.43;;;11.00;;
18166;SDS011;9208;42.688;23.404;2022-08-21T02:21:02;14.77;;;10.70;;
18166;SDS011;9208;42.688;23.404;2022-08-21T02:23:28;15.37;;;11.47;;
18166;SDS011;9208;42.688;23.404;2022-08-21T02:25:56;15.67;;;11.43;;
18166;SDS011;9208;42.688;23.404;2022-08-21T02:28:22;14.53;;;11.00;;
18166;SDS011;9208;42.688;23.404;2022-08-21T02:30:47;15.17;;;10.23;;
18166;SDS011;9208;42.688;23.404;2022-08-21T02:33:14;12.77;;;9.70;;
18166;SDS011;9208;42.688;23.404;2022-08-21T02:35:41;12.07;;;9.67;;
18166;SDS011;9208;42.688;23.404;2022-08-21T02:38:08;10.63;;;9.20;;
18166;SDS011;9208;42.688;23.404;2022-08-21T02:40:37;12.00;;;9.07;;
18166;SDS011;9208;42.688;23.404;2022-08-21T02:43:04;12.03;;;9.10;;
18166;SDS011;9208;42.688;23.404;2022-08-21T02:45:31;10.27;;;9.23;;
18166;SDS011;9208;42.688;23.404;2022-08-21T02:47:58;12.47;;;9.10;;
18166;SDS011;9208;42.688;23.404;2022-08-21T02:50:33;12.33;;;10.23;;
18166;SDS011;9208;42.688;23.404;2022-08-21T02:53:01;11.10;;;9.20;;
18166;SDS011;9208;42.688;23.404;2022-08-21T02:55:27;12.20;;;9.20;;
18166;SDS011;9208;42.688;23.404;2022-08-21T02:57:54;11.87;;;9.57;;
18166;SDS011;9208;42.688;23.404;2022-08-21T03:00:21;12.17;;;9.30;;
18166;SDS011;9208;42.688;23.404;2022-08-21T03:02:49;12.50;;;10.17;;
18166;SDS011;9208;42.688;23.404;2022-08-21T03:05:15;11.93;;;9.90;;
18166;SDS011;9208;42.688;23.404;2022-08-21T03:07:42;12.30;;;9.50;;
18166;SDS011;9208;42.688;23.404;2022-08-21T03:10:09;11.87;;;8.93;;
18166;SDS011;9208;42.688;23.404;2022-08-21T03:12:34;11.80;;;10.10;;
18166;SDS011;9208;42.688;23.404;2022-08-21T03:15:05;11.43;;;8.23;;
18166;SDS011;9208;42.688;23.404;2022-08-21T03:17:34;8.50;;;7.60;;
18166;SDS011;9208;42.688;23.404;2022-08-21T03:19:59;10.50;;;7.60;;
18166;SDS011;9208;42.688;23.404;2022-08-21T03:22:26;8.20;;;7.40;;
18166;SDS011;9208;42.688;23.404;2022-08-21T03:24:52;11.30;;;7.30;;
18166;SDS011;9208;42.688;23.404;2022-08-21T03:27:18;9.10;;;7.87;;
18166;SDS011;9208;42.688;23.404;2022-08-21T03:29:44;8.93;;;8.03;;
18166;SDS011;9208;42.688;23.404;2022-08-21T03:32:09;10.80;;;9.10;;
18166;SDS011;9208;42.688;23.404;2022-08-21T03:34:35;11.63;;;8.50;;
18166;SDS011;9208;42.688;23.404;2022-08-21T03:37:03;9.33;;;7.50;;
18166;SDS011;9208;42.688;23.404;2022-08-21T03:39:30;9.20;;;7.30;;
18166;SDS011;9208;42.688;23.404;2022-08-21T03:41:56;8.07;;;5.97;;
18166;SDS011;9208;42.688;23.404;2022-08-21T03:44:21;8.33;;;7.23;;
18166;SDS011;9208;42.688;23.404;2022-08-21T03:46:47;9.40;;;6.53;;
18166;SDS011;9208;42.688;23.404;2022-08-21T03:49:12;10.67;;;6.77;;
18166;SDS011;9208;42.688;23.404;2022-08-21T03:51:38;8.53;;;7.03;;
18166;SDS011;9208;42.688;23.404;2022-08-21T03:54:03;9.83;;;7.77;;
18166;SDS011;9208;42.688;23.404;2022-08-21T03:56:29;9.87;;;8.80;;
18166;SDS011;9208;42.688;23.404;2022-08-21T03:58:58;9.37;;;7.37;;
18166;SDS011;9208;42.688;23.404;2022-08-21T04:01:23;10.60;;;7.73;;
18166;SDS011;9208;42.688;23.404;2022-08-21T04:03:49;8.70;;;6.90;;
18166;SDS011;9208;42.688;23.404;2022-08-21T04:06:14;12.07;;;7.00;;
18166;SDS011;9208;42.688;23.404;2022-08-21T04:08:40;8.83;;;6.87;;
18166;SDS011;9208;42.688;23.404;2022-08-21T04:11:08;9.40;;;7.87;;
18166;SDS011;9208;42.688;23.404;2022-08-21T04:13:35;9.80;;;7.50;;
18166;SDS011;9208;42.688;23.404;2022-08-21T04:16:01;8.67;;;7.60;;
18166;SDS011;9208;42.688;23.404;2022-08-21T04:18:27;10.07;;;7.30;;
18166;SDS011;9208;42.688;23.404;2022-08-21T04:20:53;9.07;;;7.57;;
18166;SDS011;9208;42.688;23.404;2022-08-21T04:23:20;8.60;;;7.70;;
18166;SDS011;9208;42.688;23.404;2022-08-21T04:25:46;9.27;;;7.50;;
18166;SDS011;9208;42.688;23.404;2022-08-21T04:28:11;9.97;;;7.47;;
18166;SDS011;9208;42.688;23.404;2022-08-21T04:30:37;10.60;;;8.30;;
18166;SDS011;9208;42.688;23.404;2022-08-21T04:33:02;8.90;;;7.27;;
18166;SDS011;9208;42.688;23.404;2022-08-21T04:35:28;11.53;;;8.53;;
18166;SDS011;9208;42.688;23.404;2022-08-21T04:37:55;9.50;;;8.43;;
18166;SDS011;9208;42.688;23.404;2022-08-21T04:40:21;10.67;;;9.03;;
18166;SDS011;9208;42.688;23.404;2022-08-21T04:42:50;11.87;;;8.50;;
18166;SDS011;9208;42.688;23.404;2022-08-21T04:45:31;13.37;;;9.17;;
18166;SDS011;9208;42.688;23.404;2022-08-21T04:47:57;10.17;;;9.07;;
18166;SDS011;9208;42.688;23.404;2022-08-21T04:50:27;10.13;;;8.63;;
18166;SDS011;9208;42.688;23.404;2022-08-21T04:53:07;13.87;;;9.10;;
18166;SDS011;9208;42.688;23.404;2022-08-21T04:55:36;11.63;;;9.43;;
18166;SDS011;9208;42.688;23.404;2022-08-21T04:58:04;11.30;;;9.27;;
18166;SDS011;9208;42.688;23.404;2022-08-21T05:00:31;15.47;;;9.90;;
18166;SDS011;9208;42.688;23.404;2022-08-21T05:02:56;12.40;;;9.57;;
18166;SDS011;9208;42.688;23.404;2022-08-21T05:05:24;11.70;;;10.43;;
18166;SDS011;9208;42.688;23.404;2022-08-21T05:07:50;11.13;;;9.90;;
18166;SDS011;9208;42.688;23.404;2022-08-21T05:10:18;11.40;;;10.13;;
18166;SDS011;9208;42.688;23.404;2022-08-21T05:12:43;11.00;;;9.90;;
18166;SDS011;9208;42.688;23.404;2022-08-21T05:15:10;12.90;;;11.30;;
18166;SDS011;9208;42.688;23.404;2022-08-21T05:17:37;14.40;;;10.63;;
18166;SDS011;9208;42.688;23.404;2022-08-21T05:20:02;13.37;;;11.23;;
18166;SDS011;9208;42.688;23.404;2022-08-21T05:22:29;15.57;;;12.10;;
18166;SDS011;9208;42.688;23.404;2022-08-21T05:24:54;15.97;;;12.00;;
18166;SDS011;9208;42.688;23.404;2022-08-21T05:27:20;14.53;;;12.27;;
18166;SDS011;9208;42.688;23.404;2022-08-21T05:29:45;11.87;;;10.67;;
18166;SDS011;9208;42.688;23.404;2022-08-21T05:32:11;11.90;;;10.23;;
18166;SDS011;9208;42.688;23.404;2022-08-21T05:34:38;12.03;;;10.80;;
18166;SDS011;9208;42.688;23.404;2022-08-21T05:37:03;16.50;;;14.57;;
18166;SDS011;9208;42.688;23.404;2022-08-21T05:39:29;12.37;;;11.00;;
18166;SDS011;9208;42.688;23.404;2022-08-21T05:41:55;13.30;;;11.90;;
18166;SDS011;9208;42.688;23.404;2022-08-21T05:44:20;11.77;;;10.57;;
18166;SDS011;9208;42.688;23.404;2022-08-21T05:46:46;11.77;;;10.33;;
18166;SDS011;9208;42.688;23.404;2022-08-21T05:49:11;13.43;;;11.70;;
18166;SDS011;9208;42.688;23.404;2022-08-21T05:51:39;13.13;;;10.67;;
18166;SDS011;9208;42.688;23.404;2022-08-21T05:54:06;12.90;;;10.30;;
18166;SDS011;9208;42.688;23.404;2022-08-21T05:56:32;12.33;;;11.13;;
18166;SDS011;9208;42.688;23.404;2022-08-21T05:58:58;11.77;;;10.03;;
18166;SDS011;9208;42.688;23.404;2022-08-21T06:01:23;12.20;;;9.37;;
18166;SDS011;9208;42.688;23.404;2022-08-21T06:03:49;11.90;;;9.03;;
18166;SDS011;9208;42.688;23.404;2022-08-21T06:06:15;9.47;;;8.57;;
18166;SDS011;9208;42.688;23.404;2022-08-21T06:08:41;10.07;;;8.77;;
18166;SDS011;9208;42.688;23.404;2022-08-21T06:11:07;11.23;;;10.13;;
18166;SDS011;9208;42.688;23.404;2022-08-21T06:13:33;11.57;;;10.47;;
18166;SDS011;9208;42.688;23.404;2022-08-21T06:16:10;10.30;;;9.30;;
18166;SDS011;9208;42.688;23.404;2022-08-21T06:18:38;10.90;;;8.73;;
18166;SDS011;9208;42.688;23.404;2022-08-21T06:21:04;9.83;;;8.10;;
18166;SDS011;9208;42.688;23.404;2022-08-21T06:23:30;9.30;;;7.67;;
18166;SDS011;9208;42.688;23.404;2022-08-21T06:25:55;9.40;;;7.73;;
18166;SDS011;9208;42.688;23.404;2022-08-21T06:28:21;8.27;;;7.47;;
18166;SDS011;9208;42.688;23.404;2022-08-21T06:30:46;8.03;;;7.20;;
18166;SDS011;9208;42.688;23.404;2022-08-21T06:33:12;11.30;;;7.50;;
18166;SDS011;9208;42.688;23.404;2022-08-21T06:35:37;11.07;;;7.73;;
18166;SDS011;9208;42.688;23.404;2022-08-21T06:38:03;9.23;;;7.27;;
18166;SDS011;9208;42.688;23.404;2022-08-21T06:40:29;8.63;;;6.20;;
18166;SDS011;9208;42.688;23.404;2022-08-21T06:42:55;8.20;;;6.80;;
18166;SDS011;9208;42.688;23.404;2022-08-21T06:45:22;7.97;;;6.40;;
18166;SDS011;9208;42.688;23.404;2022-08-21T06:47:49;11.53;;;7.17;;
18166;SDS011;9208;42.688;23.404;2022-08-21T06:50:14;11.57;;;7.47;;
18166;SDS011;9208;42.688;23.404;2022-08-21T06:52:40;12.33;;;6.40;;
18166;SDS011;9208;42.688;23.404;2022-08-21T06:55:06;14.33;;;7.30;;
18166;SDS011;9208;42.688;23.404;2022-08-21T06:57:33;7.07;;;5.80;;
18166;SDS011;9208;42.688;23.404;2022-08-21T06:59:59;9.40;;;6.50;;
18166;SDS011;9208;42.688;23.404;2022-08-21T07:02:24;9.53;;;7.30;;
18166;SDS011;9208;42.688;23.404;2022-08-21T07:04:50;7.50;;;6.37;;
18166;SDS011;9208;42.688;23.404;2022-08-21T07:07:16;7.87;;;6.20;;
18166;SDS011;9208;42.688;23.404;2022-08-21T07:09:42;6.97;;;5.80;;
18166;SDS011;9208;42.688;23.404;2022-08-21T07:12:07;7.50;;;6.07;;
18166;SDS011;9208;42.688;23.404;2022-08-21T07:14:33;11.87;;;5.63;;
18166;SDS011;9208;42.688;23.404;2022-08-21T07:16:58;6.80;;;6.03;;
18166;SDS011;9208;42.688;23.404;2022-08-21T07:19:24;10.43;;;5.67;;
18166;SDS011;9208;42.688;23.404;2022-08-21T07:21:49;8.40;;;5.47;;
18166;SDS011;9208;42.688;23.404;2022-08-21T07:24:15;7.77;;;6.00;;
18166;SDS011;9208;42.688;23.404;2022-08-21T07:26:41;7.60;;;6.27;;
18166;SDS011;9208;42.688;23.404;2022-08-21T07:29:07;10.30;;;7.20;;
18166;SDS011;9208;42.688;23.404;2022-08-21T07:31:32;9.57;;;6.70;;
18166;SDS011;9208;42.688;23.404;2022-08-21T07:33:58;9.10;;;6.60;;
18166;SDS011;9208;42.688;23.404;2022-08-21T07:36:23;9.93;;;6.67;;
18166;SDS011;9208;42.688;23.404;2022-08-21T07:38:49;11.00;;;6.43;;
18166;SDS011;9208;42.688;23.404;2022-08-21T07:41:16;10.73;;;6.70;;
18166;SDS011;9208;42.688;23.404;2022-08-21T07:43:50;12.70;;;7.47;;
18166;SDS011;9208;42.688;23.404;2022-08-21T07:46:16;9.87;;;6.90;;
18166;SDS011;9208;42.688;23.404;2022-08-21T07:48:41;7.23;;;6.53;;
18166;SDS011;9208;42.688;23.404;2022-08-21T07:51:09;9.00;;;6.03;;
18166;SDS011;9208;42.688;23.404;2022-08-21T07:53:37;7.97;;;6.83;;
18166;SDS011;9208;42.688;23.404;2022-08-21T07:56:03;12.40;;;7.93;;
18166;SDS011;9208;42.688;23.404;2022-08-21T07:58:30;9.60;;;6.70;;
18166;SDS011;9208;42.688;23.404;2022-08-21T08:00:56;10.17;;;7.30;;
18166;SDS011;9208;42.688;23.404;2022-08-21T08:03:22;8.73;;;6.80;;
18166;SDS011;9208;42.688;23.404;2022-08-21T08:05:47;10.50;;;6.60;;
18166;SDS011;9208;42.688;23.404;2022-08-21T08:08:13;8.17;;;6.90;;
18166;SDS011;9208;42.688;23.404;2022-08-21T08:10:38;8.77;;;6.37;;
18166;SDS011;9208;42.688;23.404;2022-08-21T08:13:04;12.43;;;7.50;;
18166;SDS011;9208;42.688;23.404;2022-08-21T08:15:30;8.33;;;6.87;;
18166;SDS011;9208;42.688;23.404;2022-08-21T08:17:55;12.87;;;7.60;;
18166;SDS011;9208;42.688;23.404;2022-08-21T08:20:22;11.83;;;8.20;;
18166;SDS011;9208;42.688;23.404;2022-08-21T08:22:48;12.43;;;7.17;;
18166;SDS011;9208;42.688;23.404;2022-08-21T08:25:14;7.33;;;6.00;;
18166;SDS011;9208;42.688;23.404;2022-08-21T08:27:41;8.20;;;5.87;;
18166;SDS011;9208;42.688;23.404;2022-08-21T08:30:08;8.97;;;6.30;;
18166;SDS011;9208;42.688;23.404;2022-08-21T08:32:34;7.47;;;6.07;;
18166;SDS011;9208;42.688;23.404;2022-08-21T08:35:00;7.40;;;6.47;;
18166;SDS011;9208;42.688;23.404;2022-08-21T08:37:25;8.13;;;6.03;;
18166;SDS011;9208;42.688;23.404;2022-08-21T08:39:51;7.90;;;5.67;;
18166;SDS011;9208;42.688;23.404;2022-08-21T08:42:24;6.40;;;5.80;;
18166;SDS011;9208;42.688;23.404;2022-08-21T08:45:00;6.80;;;5.70;;
18166;SDS011;9208;42.688;23.404;2022-08-21T08:47:30;8.00;;;5.77;;
18166;SDS011;9208;42.688;23.404;2022-08-21T08:50:03;10.33;;;8.20;;
18166;SDS011;9208;42.688;23.404;2022-08-21T08:53:03;9.37;;;7.63;;
18166;SDS011;9208;42.688;23.404;2022-08-21T08:55:39;8.47;;;6.10;;
18166;SDS011;9208;42.688;23.404;2022-08-21T08:58:06;7.77;;;6.20;;
18166;SDS011;9208;42.688;23.404;2022-08-21T09:00:33;8.13;;;5.40;;
18166;SDS011;9208;42.688;23.404;2022-08-21T09:03:00;7.90;;;5.23;;
18166;SDS011;9208;42.688;23.404;2022-08-21T09:05:28;13.83;;;6.90;;
18166;SDS011;9208;42.688;23.404;2022-08-21T09:16:05;8.57;;;5.10;;
18166;SDS011;9208;42.688;23.404;2022-08-21T09:23:52;6.33;;;5.20;;
18166;SDS011;9208;42.688;23.404;2022-08-21T09:26:26;5.60;;;5.00;;
18166;SDS011;9208;42.688;23.404;2022-08-21T09:28:57;6.47;;;5.00;;
18166;SDS011;9208;42.688;23.404;2022-08-21T09:31:32;8.73;;;5.83;;
18166;SDS011;9208;42.688;23.404;2022-08-21T09:36:31;8.13;;;5.53;;
18166;SDS011;9208;42.688;23.404;2022-08-21T09:39:02;7.23;;;5.97;;
18166;SDS011;9208;42.688;23.404;2022-08-21T09:41:31;8.80;;;5.30;;
18166;SDS011;9208;42.688;23.404;2022-08-21T09:43:58;6.13;;;4.53;;
18166;SDS011;9208;42.688;23.404;2022-08-21T09:46:25;5.17;;;4.67;;
18166;SDS011;9208;42.688;23.404;2022-08-21T09:48:54;7.40;;;4.67;;
18166;SDS011;9208;42.688;23.404;2022-08-21T09:51:28;7.33;;;4.77;;
18166;SDS011;9208;42.688;23.404;2022-08-21T09:56:37;5.63;;;4.90;;
18166;SDS011;9208;42.688;23.404;2022-08-21T09:59:34;5.17;;;4.53;;
18166;SDS011;9208;42.688;23.404;2022-08-21T10:02:00;5.27;;;4.63;;
18166;SDS011;9208;42.688;23.404;2022-08-21T10:04:34;8.63;;;5.87;;
18166;SDS011;9208;42.688;23.404;2022-08-21T10:07:10;7.73;;;5.67;;
18166;SDS011;9208;42.688;23.404;2022-08-21T10:09:39;12.83;;;5.90;;
18166;SDS011;9208;42.688;23.404;2022-08-21T10:20:32;9.87;;;4.80;;
18166;SDS011;9208;42.688;23.404;2022-08-21T10:35:14;8.70;;;7.13;;
18166;SDS011;9208;42.688;23.404;2022-08-21T10:38:10;8.40;;;5.90;;
18166;SDS011;9208;42.688;23.404;2022-08-21T10:41:01;6.73;;;5.03;;
18166;SDS011;9208;42.688;23.404;2022-08-21T10:50:00;6.57;;;4.97;;
18166;SDS011;9208;42.688;23.404;2022-08-21T10:55:21;5.60;;;5.10;;
18166;SDS011;9208;42.688;23.404;2022-08-21T10:58:10;5.83;;;4.57;;
18166;SDS011;9208;42.688;23.404;2022-08-21T11:00:41;6.67;;;4.77;;
18166;SDS011;9208;42.688;23.404;2022-08-21T11:03:12;6.93;;;4.80;;
18166;SDS011;9208;42.688;23.404;2022-08-21T11:05:43;7.10;;;5.67;;
18166;SDS011;9208;42.688;23.404;2022-08-21T11:08:17;7.33;;;4.70;;
18166;SDS011;9208;42.688;23.404;2022-08-21T11:10:59;13.90;;;6.30;;
18166;SDS011;9208;42.688;23.404;2022-08-21T11:16:05;6.57;;;4.60;;
18166;SDS011;9208;42.688;23.404;2022-08-21T11:18:45;5.07;;;4.30;;
18166;SDS011;9208;42.688;23.404;2022-08-21T11:23:54;5.33;;;4.80;;
18166;SDS011;9208;42.688;23.404;2022-08-21T11:26:36;5.37;;;4.80;;
18166;SDS011;9208;42.688;23.404;2022-08-21T11:29:16;5.97;;;4.90;;
18166;SDS011;9208;42.688;23.404;2022-08-21T11:37:04;6.03;;;5.30;;
18166;SDS011;9208;42.688;23.404;2022-08-21T11:42:09;5.70;;;5.10;;
18166;SDS011;9208;42.688;23.404;2022-08-21T11:44:55;7.20;;;5.70;;
18166;SDS011;9208;42.688;23.404;2022-08-21T11:50:20;6.60;;;5.10;;
18166;SDS011;9208;42.688;23.404;2022-08-21T11:52:52;10.70;;;5.63;;
18166;SDS011;9208;42.688;23.404;2022-08-21T11:58:11;7.50;;;5.93;;
18166;SDS011;9208;42.688;23.404;2022-08-21T12:00:52;7.73;;;5.80;;
18166;SDS011;9208;42.688;23.404;2022-08-21T12:03:31;7.53;;;6.07;;
18166;SDS011;9208;42.688;23.404;2022-08-21T12:06:10;6.57;;;5.37;;
18166;SDS011;9208;42.688;23.404;2022-08-21T12:08:41;7.73;;;5.53;;
18166;SDS011;9208;42.688;23.404;2022-08-21T12:16:31;5.57;;;5.03;;
18166;SDS011;9208;42.688;23.404;2022-08-21T12:19:13;6.53;;;5.10;;
18166;SDS011;9208;42.688;23.404;2022-08-21T12:21:52;5.60;;;5.00;;
18166;SDS011;9208;42.688;23.404;2022-08-21T12:24:50;7.07;;;5.43;;
18166;SDS011;9208;42.688;23.404;2022-08-21T12:30:17;5.57;;;5.00;;
18166;SDS011;9208;42.688;23.404;2022-08-21T12:32:59;6.43;;;4.83;;
18166;SDS011;9208;42.688;23.404;2022-08-21T12:35:37;6.97;;;4.90;;
18166;SDS011;9208;42.688;23.404;2022-08-21T12:40:50;5.23;;;4.73;;
18166;SDS011;9208;42.688;23.404;2022-08-21T12:43:37;6.53;;;4.87;;
18166;SDS011;9208;42.688;23.404;2022-08-21T12:46:06;5.50;;;4.60;;
18166;SDS011;9208;42.688;23.404;2022-08-21T12:48:38;5.93;;;4.90;;
18166;SDS011;9208;42.688;23.404;2022-08-21T12:53:38;6.37;;;4.77;;
18166;SDS011;9208;42.688;23.404;2022-08-21T12:56:10;6.30;;;4.67;;
18166;SDS011;9208;42.688;23.404;2022-08-21T12:58:40;6.00;;;4.73;;
18166;SDS011;9208;42.688;23.404;2022-08-21T13:01:52;7.70;;;5.00;;
18166;SDS011;9208;42.688;23.404;2022-08-21T13:04:07;6.23;;;5.10;;
18166;SDS011;9208;42.688;23.404;2022-08-21T13:06:41;7.63;;;5.10;;
18166;SDS011;9208;42.688;23.404;2022-08-21T13:09:11;7.57;;;4.93;;
18166;SDS011;9208;42.688;23.404;2022-08-21T13:11:40;6.90;;;5.20;;
18166;SDS011;9208;42.688;23.404;2022-08-21T13:14:20;5.40;;;4.73;;
18166;SDS011;9208;42.688;23.404;2022-08-21T13:16:55;5.70;;;4.93;;
18166;SDS011;9208;42.688;23.404;2022-08-21T13:19:22;7.13;;;5.43;;
18166;SDS011;9208;42.688;23.404;2022-08-21T13:21:49;5.23;;;4.60;;
18166;SDS011;9208;42.688;23.404;2022-08-21T13:24:19;6.43;;;4.50;;
18166;SDS011;9208;42.688;23.404;2022-08-21T13:26:48;6.50;;;4.60;;
18166;SDS011;9208;42.688;23.404;2022-08-21T13:29:19;8.43;;;5.27;;
18166;SDS011;9208;42.688;23.404;2022-08-21T13:32:21;8.67;;;4.47;;
18166;SDS011;9208;42.688;23.404;2022-08-21T13:34:46;7.07;;;4.73;;
18166;SDS011;9208;42.688;23.404;2022-08-21T13:37:12;11.33;;;5.53;;
18166;SDS011;9208;42.688;23.404;2022-08-21T13:39:39;13.33;;;5.80;;
18166;SDS011;9208;42.688;23.404;2022-08-21T13:42:08;15.10;;;5.60;;
18166;SDS011;9208;42.688;23.404;2022-08-21T13:44:40;9.70;;;5.40;;
18166;SDS011;9208;42.688;23.404;2022-08-21T13:47:11;8.30;;;5.07;;
18166;SDS011;9208;42.688;23.404;2022-08-21T13:49:49;7.27;;;5.30;;
18166;SDS011;9208;42.688;23.404;2022-08-21T13:54:55;9.57;;;5.70;;
18166;SDS011;9208;42.688;23.404;2022-08-21T13:57:27;11.57;;;5.77;;
18166;SDS011;9208;42.688;23.404;2022-08-21T14:02:45;5.73;;;4.80;;
18166;SDS011;9208;42.688;23.404;2022-08-21T14:05:21;6.50;;;5.47;;
18166;SDS011;9208;42.688;23.404;2022-08-21T14:07:50;5.40;;;4.90;;
18166;SDS011;9208;42.688;23.404;2022-08-21T14:10:27;9.17;;;4.87;;
18166;SDS011;9208;42.688;23.404;2022-08-21T14:13:03;6.17;;;4.50;;
18166;SDS011;9208;42.688;23.404;2022-08-21T14:15:31;7.27;;;4.90;;
18166;SDS011;9208;42.688;23.404;2022-08-21T14:18:13;7.30;;;4.50;;
18166;SDS011;9208;42.688;23.404;2022-08-21T14:20:41;6.13;;;4.43;;
18166;SDS011;9208;42.688;23.404;2022-08-21T14:23:07;6.27;;;4.67;;
18166;SDS011;9208;42.688;23.404;2022-08-21T14:25:38;7.43;;;4.50;;
18166;SDS011;9208;42.688;23.404;2022-08-21T14:28:11;7.07;;;4.60;;
18166;SDS011;9208;42.688;23.404;2022-08-21T14:30:41;5.73;;;4.73;;
18166;SDS011;9208;42.688;23.404;2022-08-21T14:33:09;6.93;;;5.00;;
18166;SDS011;9208;42.688;23.404;2022-08-21T14:35:36;6.93;;;4.93;;
18166;SDS011;9208;42.688;23.404;2022-08-21T14:38:02;7.33;;;4.90;;
18166;SDS011;9208;42.688;23.404;2022-08-21T14:40:27;5.87;;;5.20;;
18166;SDS011;9208;42.688;23.404;2022-08-21T14:42:53;5.90;;;4.47;;
18166;SDS011;9208;42.688;23.404;2022-08-21T14:45:21;5.27;;;4.57;;
18166;SDS011;9208;42.688;23.404;2022-08-21T14:47:52;6.03;;;4.43;;
18166;SDS011;9208;42.688;23.404;2022-08-21T14:50:18;5.53;;;4.90;;
18166;SDS011;9208;42.688;23.404;2022-08-21T14:52:44;6.93;;;4.60;;
18166;SDS011;9208;42.688;23.404;2022-08-21T14:55:11;5.30;;;4.80;;
18166;SDS011;9208;42.688;23.404;2022-08-21T14:57:39;7.07;;;4.97;;
18166;SDS011;9208;42.688;23.404;2022-08-21T15:00:11;6.80;;;4.83;;
18166;SDS011;9208;42.688;23.404;2022-08-21T15:02:38;6.40;;;4.80;;
18166;SDS011;9208;42.688;23.404;2022-08-21T15:05:04;6.40;;;5.00;;
18166;SDS011;9208;42.688;23.404;2022-08-21T15:07:30;5.50;;;4.80;;
18166;SDS011;9208;42.688;23.404;2022-08-21T15:09:56;5.80;;;5.20;;
18166;SDS011;9208;42.688;23.404;2022-08-21T15:12:22;6.83;;;5.47;;
18166;SDS011;9208;42.688;23.404;2022-08-21T15:14:49;6.73;;;4.90;;
18166;SDS011;9208;42.688;23.404;2022-08-21T15:17:14;5.50;;;5.00;;
18166;SDS011;9208;42.688;23.404;2022-08-21T15:19:40;5.77;;;5.20;;
18166;SDS011;9208;42.688;23.404;2022-08-21T15:22:06;6.13;;;5.03;;
18166;SDS011;9208;42.688;23.404;2022-08-21T15:24:31;6.77;;;5.17;;
18166;SDS011;9208;42.688;23.404;2022-08-21T15:26:58;6.43;;;4.87;;
18166;SDS011;9208;42.688;23.404;2022-08-21T15:29:25;9.80;;;5.77;;
18166;SDS011;9208;42.688;23.404;2022-08-21T15:31:55;7.13;;;5.10;;
18166;SDS011;9208;42.688;23.404;2022-08-21T15:34:23;6.27;;;4.63;;
18166;SDS011;9208;42.688;23.404;2022-08-21T15:36:50;6.10;;;5.50;;
18166;SDS011;9208;42.688;23.404;2022-08-21T15:39:16;7.57;;;5.40;;
18166;SDS011;9208;42.688;23.404;2022-08-21T15:41:42;5.80;;;5.20;;
18166;SDS011;9208;42.688;23.404;2022-08-21T15:44:08;6.90;;;5.40;;
18166;SDS011;9208;42.688;23.404;2022-08-21T15:46:36;6.57;;;5.43;;
18166;SDS011;9208;42.688;23.404;2022-08-21T15:49:03;8.63;;;5.33;;
18166;SDS011;9208;42.688;23.404;2022-08-21T15:51:29;6.20;;;5.60;;
18166;SDS011;9208;42.688;23.404;2022-08-21T15:53:54;6.33;;;5.33;;
18166;SDS011;9208;42.688;23.404;2022-08-21T15:56:20;7.50;;;5.37;;
18166;SDS011;9208;42.688;23.404;2022-08-21T15:58:49;5.93;;;5.33;;
18166;SDS011;9208;42.688;23.404;2022-08-21T16:01:15;6.80;;;5.30;;
18166;SDS011;9208;42.688;23.404;2022-08-21T16:03:47;7.57;;;5.77;;
18166;SDS011;9208;42.688;23.404;2022-08-21T16:06:15;7.93;;;5.13;;
18166;SDS011;9208;42.688;23.404;2022-08-21T16:08:41;8.70;;;5.70;;
18166;SDS011;9208;42.688;23.404;2022-08-21T16:11:07;5.80;;;5.30;;
18166;SDS011;9208;42.688;23.404;2022-08-21T16:13:36;7.50;;;5.30;;
18166;SDS011;9208;42.688;23.404;2022-08-21T16:16:04;10.70;;;6.27;;